createdAt,value
2019-04-26T00:02:51.687Z,9.10
2019-04-26T00:07:58.525Z,10.47
2019-04-26T00:13:38.999Z,11.30
2019-04-26T00:18:47.126Z,16.87
2019-04-26T00:23:57.313Z,14.87
2019-04-26T00:29:03.963Z,12.07
2019-04-26T00:34:09.550Z,11.20
2019-04-26T00:39:16.093Z,12.63
2019-04-26T00:44:22.915Z,10.30
2019-04-26T00:49:42.953Z,15.83
2019-04-26T00:54:41.165Z,11.47
2019-04-26T00:59:47.471Z,10.27
2019-04-26T01:04:54.858Z,10.60
2019-04-26T01:10:02.899Z,17.00
2019-04-26T01:15:09.157Z,16.57
2019-04-26T01:20:16.132Z,13.00
2019-04-26T01:26:03.662Z,13.77
2019-04-26T01:31:13.778Z,13.40
2019-04-26T01:36:20.612Z,11.00
2019-04-26T01:41:36.669Z,14.03
2019-04-26T01:46:44.903Z,12.13
2019-04-26T01:51:59.235Z,12.57
2019-04-26T01:57:07.612Z,13.97
2019-04-26T02:02:27.879Z,9.60
2019-04-26T02:07:40.346Z,19.77
2019-04-26T02:12:49.570Z,12.13
2019-04-26T02:17:57.522Z,12.57
2019-04-26T02:23:09.037Z,12.63
2019-04-26T02:28:16.247Z,17.83
2019-04-26T02:33:21.716Z,16.57
2019-04-26T02:38:29.279Z,12.97
2019-04-26T02:43:37.227Z,12.87
2019-04-26T02:49:22.261Z,14.47
2019-04-26T02:54:45.983Z,10.50
2019-04-26T02:59:55.183Z,13.90
2019-04-26T03:05:06.580Z,11.53
2019-04-26T03:10:14.113Z,12.40
2019-04-26T03:15:39.376Z,17.07
2019-04-26T03:20:47.745Z,15.77
2019-04-26T03:26:33.687Z,12.87
2019-04-26T03:32:18.823Z,17.00
2019-04-26T03:37:50.631Z,24.73
2019-04-26T03:43:19.458Z,14.90
2019-04-26T03:48:36.025Z,16.40
2019-04-26T03:53:57.651Z,15.37
2019-04-26T03:59:32.985Z,12.40
2019-04-26T04:04:48.519Z,19.47
2019-04-26T04:10:00.176Z,17.07
2019-04-26T04:15:11.154Z,14.03
2019-04-26T04:20:50.331Z,18.17
2019-04-26T04:25:59.740Z,12.80
2019-04-26T04:31:16.997Z,14.47
2019-04-26T04:36:27.289Z,9.63
2019-04-26T04:41:55.980Z,15.40
2019-04-26T04:47:24.144Z,14.57
2019-04-26T04:52:50.268Z,11.77
2019-04-26T04:58:17.134Z,14.60
2019-04-26T05:03:51.078Z,18.30
2019-04-26T05:09:00.769Z,12.77
2019-04-26T05:14:31.831Z,15.93
2019-04-26T05:20:07.377Z,15.30
2019-04-26T05:26:11.448Z,10.97
2019-04-26T05:31:32.953Z,16.37
2019-04-26T05:36:59.909Z,13.27
2019-04-26T05:49:45.862Z,17.73
2019-04-26T05:55:27.893Z,8.70
2019-04-26T06:01:20.128Z,9.67
2019-04-26T06:06:45.072Z,12.30
2019-04-26T06:12:02.325Z,17.47
2019-04-26T06:17:46.328Z,12.23
2019-04-26T06:23:10.984Z,11.37
2019-04-26T06:28:42.410Z,15.10
2019-04-26T06:34:06.800Z,8.30
2019-04-26T06:39:27.878Z,11.27
2019-04-26T06:44:58.348Z,10.63
2019-04-26T06:50:21.728Z,8.87
2019-04-26T06:55:39.998Z,11.57
2019-04-26T07:01:16.584Z,10.13
2019-04-26T07:06:34.939Z,12.80
2019-04-26T07:12:35.193Z,13.60
2019-04-26T07:18:22.129Z,11.60
2019-04-26T07:24:11.208Z,9.20
2019-04-26T07:29:59.106Z,7.77
2019-04-26T07:35:20.996Z,9.93
2019-04-26T07:41:29.373Z,8.63
2019-04-26T07:47:41.093Z,19.50
2019-04-26T07:53:23.298Z,13.77
2019-04-26T07:58:56.161Z,12.43
2019-04-26T08:04:10.008Z,9.60
2019-04-26T08:09:27.737Z,10.33
2019-04-26T08:15:01.905Z,9.63
2019-04-26T08:20:53.011Z,11.53
2019-04-26T08:26:09.207Z,7.70
2019-04-26T08:31:23.173Z,12.03
2019-04-26T08:36:44.876Z,13.00
2019-04-26T08:42:01.700Z,7.53
2019-04-26T08:47:41.852Z,9.30
2019-04-26T08:53:04.875Z,6.13
2019-04-26T08:58:21.287Z,10.43
2019-04-26T09:04:00.831Z,5.83
2019-04-26T09:09:27.480Z,5.70
2019-04-26T09:14:37.917Z,11.50
2019-04-26T09:19:54.963Z,4.40
2019-04-26T09:25:24.359Z,7.57
2019-04-26T09:30:47.675Z,10.50
2019-04-26T09:35:59.428Z,10.83
2019-04-26T09:41:12.895Z,5.43
2019-04-26T09:46:41.152Z,7.30
2019-04-26T09:51:57.632Z,4.60
2019-04-26T09:57:20.393Z,3.53
2019-04-26T10:02:35.557Z,5.27
2019-04-26T10:07:41.938Z,9.57
2019-04-26T10:13:09.788Z,6.00
2019-04-26T10:18:28.235Z,6.30
2019-04-26T10:23:43.779Z,5.30
2019-04-26T10:28:56.731Z,5.90
2019-04-26T10:34:03.023Z,5.90
2019-04-26T10:39:11.332Z,6.90
2019-04-26T10:44:16.861Z,6.10
2019-04-26T10:49:43.339Z,4.30
2019-04-26T10:54:53.576Z,5.53
2019-04-26T11:00:01.936Z,7.70
2019-04-26T11:05:11.593Z,5.57
2019-04-26T11:10:48.114Z,6.33
2019-04-26T11:15:54.172Z,3.90
2019-04-26T11:21:11.140Z,6.30
2019-04-26T11:26:23.704Z,2.90
2019-04-26T11:31:37.792Z,5.67
2019-04-26T11:36:54.961Z,7.33
2019-04-26T11:42:20.652Z,10.67
2019-04-26T11:47:54.250Z,5.47
2019-04-26T11:52:58.023Z,10.73
2019-04-26T11:58:05.765Z,9.27
2019-04-26T12:03:21.214Z,10.27
2019-04-26T12:08:48.738Z,9.13
2019-04-26T12:14:04.068Z,6.30
2019-04-26T12:19:19.552Z,9.67
2019-04-26T12:24:34.661Z,9.33
2019-04-26T12:29:58.504Z,6.87
2019-04-26T12:35:11.497Z,5.97
2019-04-26T12:40:24.652Z,6.17
2019-04-26T12:45:57.539Z,4.80
2019-04-26T12:51:13.479Z,6.00
2019-04-26T12:56:26.685Z,5.77
2019-04-26T13:01:42.561Z,5.47
2019-04-26T13:07:06.705Z,7.10
2019-04-26T13:12:29.858Z,4.83
2019-04-26T13:17:48.890Z,7.73
2019-04-26T13:23:02.791Z,6.37
2019-04-26T13:28:09.898Z,7.13
2019-04-26T13:33:26.928Z,5.27
2019-04-26T13:38:43.580Z,8.93
2019-04-26T13:44:01.285Z,7.63
2019-04-26T13:49:32.438Z,16.03
2019-04-26T13:54:51.185Z,10.53
2019-04-26T14:00:07.629Z,4.90
2019-04-26T14:05:26.675Z,6.67
2019-04-26T14:10:34.000Z,8.17
2019-04-26T14:15:43.286Z,6.07
2019-04-26T14:20:46.735Z,5.83
2019-04-26T14:26:25.071Z,9.67
2019-04-26T14:31:36.332Z,5.57
2019-04-26T14:37:05.563Z,5.47
2019-04-26T14:42:09.342Z,8.30
2019-04-26T14:47:30.537Z,7.60
2019-04-26T14:52:41.803Z,13.37
2019-04-26T14:57:55.880Z,6.40
2019-04-26T15:03:24.128Z,4.93
2019-04-26T15:08:32.605Z,4.60
2019-04-26T15:13:40.423Z,7.93
2019-04-26T15:18:46.233Z,5.00
2019-04-26T15:23:55.428Z,6.37
2019-04-26T15:28:58.648Z,8.70
2019-04-26T15:34:04.140Z,8.30
2019-04-26T15:39:23.099Z,4.07
2019-04-26T15:44:33.559Z,6.43
2019-04-26T15:49:47.207Z,6.00
2019-04-26T15:54:58.430Z,7.20
2019-04-26T15:59:59.524Z,8.60
2019-04-26T16:05:05.329Z,7.37
2019-04-26T16:10:13.199Z,6.47
2019-04-26T16:15:18.836Z,6.40
2019-04-26T16:20:24.467Z,6.83
2019-04-26T16:25:34.364Z,6.57
2019-04-26T16:30:47.578Z,5.10
2019-04-26T16:35:53.050Z,10.17
2019-04-26T16:40:58.489Z,5.50
2019-04-26T16:46:04.210Z,5.67
2019-04-26T16:51:10.059Z,6.13
2019-04-26T16:56:16.587Z,5.13
2019-04-26T17:01:23.471Z,7.27
2019-04-26T17:06:29.437Z,5.77
2019-04-26T17:11:39.288Z,5.97
2019-04-26T17:16:44.383Z,5.73
2019-04-26T17:22:14.103Z,8.70
2019-04-26T17:27:22.683Z,10.03
2019-04-26T17:32:35.223Z,9.47
2019-04-26T17:37:47.181Z,13.37
2019-04-26T17:42:53.246Z,9.33
2019-04-26T17:48:01.335Z,9.27
2019-04-26T17:53:10.773Z,14.73
2019-04-26T17:58:33.631Z,13.20
2019-04-26T18:03:38.894Z,14.03
2019-04-26T18:08:51.205Z,16.27
2019-04-26T18:13:53.253Z,14.30
2019-04-26T18:19:24.138Z,13.60
2019-04-26T18:24:32.267Z,14.00
2019-04-26T18:29:37.569Z,18.87
2019-04-26T18:34:44.373Z,16.53
2019-04-26T18:39:49.952Z,20.60
2019-04-26T18:44:57.650Z,23.53
2019-04-26T18:50:03.043Z,21.13
2019-04-26T18:55:21.565Z,23.87
2019-04-26T19:00:33.715Z,20.53
2019-04-26T19:05:39.195Z,21.53
2019-04-26T19:10:44.704Z,19.20
2019-04-26T19:15:57.362Z,22.00
2019-04-26T19:21:38.954Z,23.10
2019-04-26T19:26:44.094Z,20.17
2019-04-26T19:31:56.709Z,22.07
2019-04-26T19:37:03.260Z,19.70
2019-04-26T19:42:08.474Z,20.50
2019-04-26T19:47:45.343Z,17.60
2019-04-26T19:53:01.754Z,20.77
2019-04-26T19:58:16.011Z,17.50
2019-04-26T20:03:19.159Z,19.10
2019-04-26T20:08:29.495Z,21.87
2019-04-26T20:13:35.076Z,17.03
2019-04-26T20:18:41.675Z,15.93
2019-04-26T20:23:48.758Z,12.67
2019-04-26T20:28:55.235Z,14.83
2019-04-26T20:34:01.636Z,12.37
2019-04-26T20:39:12.517Z,12.13
2019-04-26T20:44:23.893Z,13.30
2019-04-26T20:49:25.284Z,11.50
2019-04-26T20:54:31.784Z,10.13
2019-04-26T20:59:37.590Z,9.33
2019-04-26T21:04:46.026Z,9.80
2019-04-26T21:09:52.068Z,9.67
2019-04-26T21:14:57.610Z,9.83
2019-04-26T21:20:03.500Z,9.27
2019-04-26T21:25:15.368Z,9.33
2019-04-26T21:30:48.965Z,8.63
2019-04-26T21:36:13.601Z,9.37
2019-04-26T21:41:23.576Z,9.73
2019-04-26T21:46:33.934Z,9.20
2019-04-26T21:51:40.304Z,8.23
2019-04-26T21:56:49.655Z,9.00
2019-04-26T22:01:59.098Z,9.00
2019-04-26T22:07:05.198Z,8.17
2019-04-26T22:12:13.052Z,7.90
2019-04-26T22:17:24.342Z,6.53
2019-04-26T22:22:41.522Z,8.67
2019-04-26T22:27:45.399Z,8.43
2019-04-26T22:32:54.632Z,6.70
2019-04-26T22:37:58.494Z,6.90
2019-04-26T22:43:20.628Z,7.93
2019-04-26T22:48:31.163Z,9.03
2019-04-26T22:53:36.672Z,9.53
2019-04-26T22:58:44.014Z,9.20
2019-04-26T23:03:50.175Z,7.93
2019-04-26T23:08:55.893Z,8.07
2019-04-26T23:14:35.339Z,7.60
2019-04-26T23:20:03.020Z,8.20
2019-04-26T23:25:08.863Z,9.73
2019-04-26T23:30:15.879Z,6.73
2019-04-26T23:35:21.696Z,6.77
2019-04-26T23:40:28.930Z,6.70
2019-04-26T23:45:36.489Z,6.47
2019-04-26T23:50:42.992Z,6.97
2019-04-26T23:55:48.764Z,6.00
